sensor_id;sensor_type;location;lat;lon;timestamp;P1;durP1;ratioP1;P2;durP2;ratioP2
14346;SDS011;7257;52.158;9.968;2022-10-15T00:00:17;3.42;;;3.13;;
14346;SDS011;7257;52.158;9.968;2022-10-15T00:00:39;3.40;;;3.10;;
14346;SDS011;7257;52.158;9.968;2022-10-15T00:01:07;3.92;;;3.40;;
14346;SDS011;7257;52.158;9.968;2022-10-15T00:01:29;4.10;;;3.40;;
14346;SDS011;7257;52.158;9.968;2022-10-15T00:01:50;4.38;;;3.58;;
14346;SDS011;7257;52.158;9.968;2022-10-15T00:02:12;4.22;;;3.70;;
14346;SDS011;7257;52.158;9.968;2022-10-15T00:02:33;5.40;;;4.70;;
14346;SDS011;7257;52.158;9.968;2022-10-15T00:02:54;5.75;;;5.13;;
14346;SDS011;7257;52.158;9.968;2022-10-15T00:03:16;5.90;;;5.25;;
14346;SDS011;7257;52.158;9.968;2022-10-15T00:03:37;5.07;;;4.57;;
14346;SDS011;7257;52.158;9.968;2022-10-15T00:03:59;4.45;;;4.05;;
14346;SDS011;7257;52.158;9.968;2022-10-15T00:04:20;4.05;;;3.55;;
14346;SDS011;7257;52.158;9.968;2022-10-15T00:04:41;4.15;;;3.25;;
14346;SDS011;7257;52.158;9.968;2022-10-15T00:05:02;3.60;;;3.10;;
14346;SDS011;7257;52.158;9.968;2022-10-15T00:05:24;3.95;;;3.40;;
14346;SDS011;7257;52.158;9.968;2022-10-15T00:05:45;4.07;;;3.67;;
14346;SDS011;7257;52.158;9.968;2022-10-15T00:06:06;4.15;;;3.70;;
14346;SDS011;7257;52.158;9.968;2022-10-15T00:06:30;4.10;;;3.70;;
14346;SDS011;7257;52.158;9.968;2022-10-15T00:06:51;4.28;;;3.88;;
14346;SDS011;7257;52.158;9.968;2022-10-15T00:07:12;4.57;;;4.18;;
14346;SDS011;7257;52.158;9.968;2022-10-15T00:07:35;4.55;;;4.15;;
14346;SDS011;7257;52.158;9.968;2022-10-15T00:07:57;4.60;;;4.05;;
14346;SDS011;7257;52.158;9.968;2022-10-15T00:08:17;4.63;;;4.07;;
14346;SDS011;7257;52.158;9.968;2022-10-15T00:08:39;4.90;;;3.97;;
14346;SDS011;7257;52.158;9.968;2022-10-15T00:09:00;5.38;;;4.28;;
14346;SDS011;7257;52.158;9.968;2022-10-15T00:09:22;5.28;;;4.25;;
14346;SDS011;7257;52.158;9.968;2022-10-15T00:09:43;4.65;;;4.20;;
14346;SDS011;7257;52.158;9.968;2022-10-15T00:10:04;3.80;;;3.47;;
14346;SDS011;7257;52.158;9.968;2022-10-15T00:10:25;3.45;;;3.15;;
14346;SDS011;7257;52.158;9.968;2022-10-15T00:10:47;3.30;;;3.00;;
14346;SDS011;7257;52.158;9.968;2022-10-15T00:11:09;3.23;;;2.80;;
14346;SDS011;7257;52.158;9.968;2022-10-15T00:11:32;3.60;;;2.90;;
14346;SDS011;7257;52.158;9.968;2022-10-15T00:11:53;4.22;;;3.30;;
14346;SDS011;7257;52.158;9.968;2022-10-15T00:12:15;4.85;;;3.40;;
14346;SDS011;7257;52.158;9.968;2022-10-15T00:12:39;5.00;;;3.67;;
14346;SDS011;7257;52.158;9.968;2022-10-15T00:13:01;4.95;;;3.80;;
14346;SDS011;7257;52.158;9.968;2022-10-15T00:13:22;4.07;;;3.67;;
14346;SDS011;7257;52.158;9.968;2022-10-15T00:13:43;3.85;;;3.55;;
14346;SDS011;7257;52.158;9.968;2022-10-15T00:14:05;3.67;;;3.38;;
14346;SDS011;7257;52.158;9.968;2022-10-15T00:14:26;3.70;;;3.30;;
14346;SDS011;7257;52.158;9.968;2022-10-15T00:14:47;3.42;;;2.95;;
14346;SDS011;7257;52.158;9.968;2022-10-15T00:15:08;3.30;;;3.00;;
14346;SDS011;7257;52.158;9.968;2022-10-15T00:15:29;4.03;;;3.63;;
14346;SDS011;7257;52.158;9.968;2022-10-15T00:15:52;4.20;;;3.80;;
14346;SDS011;7257;52.158;9.968;2022-10-15T00:16:13;4.23;;;3.67;;
14346;SDS011;7257;52.158;9.968;2022-10-15T00:16:35;3.85;;;3.30;;
14346;SDS011;7257;52.158;9.968;2022-10-15T00:16:56;4.30;;;3.75;;
14346;SDS011;7257;52.158;9.968;2022-10-15T00:17:18;4.88;;;4.38;;
14346;SDS011;7257;52.158;9.968;2022-10-15T00:17:40;4.88;;;4.38;;
14346;SDS011;7257;52.158;9.968;2022-10-15T00:18:01;4.40;;;3.92;;
14346;SDS011;7257;52.158;9.968;2022-10-15T00:18:22;5.20;;;3.47;;
14346;SDS011;7257;52.158;9.968;2022-10-15T00:18:43;5.50;;;3.50;;
14346;SDS011;7257;52.158;9.968;2022-10-15T00:19:05;5.45;;;3.63;;
14346;SDS011;7257;52.158;9.968;2022-10-15T00:19:27;4.40;;;3.92;;
14346;SDS011;7257;52.158;9.968;2022-10-15T00:19:49;4.68;;;4.18;;
14346;SDS011;7257;52.158;9.968;2022-10-15T00:20:10;4.75;;;3.95;;
14346;SDS011;7257;52.158;9.968;2022-10-15T00:20:31;4.57;;;3.65;;
14346;SDS011;7257;52.158;9.968;2022-10-15T00:20:53;4.65;;;3.70;;
14346;SDS011;7257;52.158;9.968;2022-10-15T00:21:15;5.35;;;4.10;;
14346;SDS011;7257;52.158;9.968;2022-10-15T00:21:38;4.78;;;4.07;;
14346;SDS011;7257;52.158;9.968;2022-10-15T00:21:59;4.88;;;4.30;;
14346;SDS011;7257;52.158;9.968;2022-10-15T00:22:21;4.47;;;4.07;;
14346;SDS011;7257;52.158;9.968;2022-10-15T00:22:44;4.35;;;3.95;;
14346;SDS011;7257;52.158;9.968;2022-10-15T00:23:07;4.30;;;3.90;;
14346;SDS011;7257;52.158;9.968;2022-10-15T00:23:29;4.72;;;4.30;;
14346;SDS011;7257;52.158;9.968;2022-10-15T00:23:53;5.30;;;4.80;;
14346;SDS011;7257;52.158;9.968;2022-10-15T00:24:26;5.90;;;5.30;;
14346;SDS011;7257;52.158;9.968;2022-10-15T00:24:53;5.88;;;5.38;;
14346;SDS011;7257;52.158;9.968;2022-10-15T00:25:15;5.00;;;4.50;;
14346;SDS011;7257;52.158;9.968;2022-10-15T00:25:36;4.40;;;3.92;;
14346;SDS011;7257;52.158;9.968;2022-10-15T00:26:02;4.15;;;3.55;;
14346;SDS011;7257;52.158;9.968;2022-10-15T00:26:26;4.30;;;3.60;;
14346;SDS011;7257;52.158;9.968;2022-10-15T00:26:48;3.97;;;3.40;;
14346;SDS011;7257;52.158;9.968;2022-10-15T00:27:09;3.95;;;3.55;;
14346;SDS011;7257;52.158;9.968;2022-10-15T00:27:32;4.20;;;3.70;;
14346;SDS011;7257;52.158;9.968;2022-10-15T00:27:55;4.55;;;3.90;;
14346;SDS011;7257;52.158;9.968;2022-10-15T00:28:16;4.65;;;4.25;;
14346;SDS011;7257;52.158;9.968;2022-10-15T00:28:37;5.05;;;4.55;;
14346;SDS011;7257;52.158;9.968;2022-10-15T00:29:00;4.63;;;4.22;;
14346;SDS011;7257;52.158;9.968;2022-10-15T00:29:25;4.57;;;4.18;;
14346;SDS011;7257;52.158;9.968;2022-10-15T00:29:51;4.60;;;3.97;;
14346;SDS011;7257;52.158;9.968;2022-10-15T00:30:13;4.57;;;3.72;;
14346;SDS011;7257;52.158;9.968;2022-10-15T00:30:34;4.50;;;4.10;;
14346;SDS011;7257;52.158;9.968;2022-10-15T00:30:59;4.80;;;4.32;;
14346;SDS011;7257;52.158;9.968;2022-10-15T00:31:21;4.45;;;4.03;;
14346;SDS011;7257;52.158;9.968;2022-10-15T00:31:45;4.70;;;4.10;;
14346;SDS011;7257;52.158;9.968;2022-10-15T00:32:06;4.30;;;3.90;;
14346;SDS011;7257;52.158;9.968;2022-10-15T00:32:29;3.92;;;3.40;;
14346;SDS011;7257;52.158;9.968;2022-10-15T00:32:55;4.50;;;3.70;;
14346;SDS011;7257;52.158;9.968;2022-10-15T00:33:18;4.90;;;4.40;;
14346;SDS011;7257;52.158;9.968;2022-10-15T00:33:42;4.47;;;4.00;;
14346;SDS011;7257;52.158;9.968;2022-10-15T00:34:07;3.90;;;3.42;;
14346;SDS011;7257;52.158;9.968;2022-10-15T00:34:29;4.03;;;3.60;;
14346;SDS011;7257;52.158;9.968;2022-10-15T00:34:51;3.85;;;3.45;;
14346;SDS011;7257;52.158;9.968;2022-10-15T00:35:12;3.80;;;3.30;;
14346;SDS011;7257;52.158;9.968;2022-10-15T00:35:40;3.30;;;2.92;;
14346;SDS011;7257;52.158;9.968;2022-10-15T00:36:02;5.20;;;4.18;;
14346;SDS011;7257;52.158;9.968;2022-10-15T00:36:26;6.20;;;4.63;;
14346;SDS011;7257;52.158;9.968;2022-10-15T00:36:49;5.65;;;4.20;;
14346;SDS011;7257;52.158;9.968;2022-10-15T00:37:10;4.22;;;3.83;;
14346;SDS011;7257;52.158;9.968;2022-10-15T00:37:35;4.35;;;3.95;;
14346;SDS011;7257;52.158;9.968;2022-10-15T00:37:56;4.75;;;3.83;;
14346;SDS011;7257;52.158;9.968;2022-10-15T00:38:20;4.43;;;3.42;;
14346;SDS011;7257;52.158;9.968;2022-10-15T00:38:44;3.97;;;3.20;;
14346;SDS011;7257;52.158;9.968;2022-10-15T00:39:05;5.68;;;3.50;;
14346;SDS011;7257;52.158;9.968;2022-10-15T00:39:28;5.78;;;3.60;;
14346;SDS011;7257;52.158;9.968;2022-10-15T00:39:49;6.30;;;4.18;;
14346;SDS011;7257;52.158;9.968;2022-10-15T00:40:10;4.82;;;4.43;;
14346;SDS011;7257;52.158;9.968;2022-10-15T00:40:34;4.47;;;4.07;;
14346;SDS011;7257;52.158;9.968;2022-10-15T00:40:56;4.30;;;3.90;;
14346;SDS011;7257;52.158;9.968;2022-10-15T00:41:18;4.65;;;3.90;;
14346;SDS011;7257;52.158;9.968;2022-10-15T00:41:41;4.22;;;3.58;;
14346;SDS011;7257;52.158;9.968;2022-10-15T00:42:03;4.53;;;3.90;;
14346;SDS011;7257;52.158;9.968;2022-10-15T00:42:25;4.40;;;4.00;;
14346;SDS011;7257;52.158;9.968;2022-10-15T00:42:46;4.47;;;4.07;;
14346;SDS011;7257;52.158;9.968;2022-10-15T00:43:08;4.10;;;3.77;;
14346;SDS011;7257;52.158;9.968;2022-10-15T00:43:34;4.18;;;3.78;;
14346;SDS011;7257;52.158;9.968;2022-10-15T00:43:57;4.05;;;3.65;;
14346;SDS011;7257;52.158;9.968;2022-10-15T00:45:08;4.40;;;3.83;;
14346;SDS011;7257;52.158;9.968;2022-10-15T00:45:32;4.00;;;3.60;;
14346;SDS011;7257;52.158;9.968;2022-10-15T00:45:54;3.60;;;3.30;;
14346;SDS011;7257;52.158;9.968;2022-10-15T00:46:22;4.35;;;3.95;;
14346;SDS011;7257;52.158;9.968;2022-10-15T00:46:46;4.60;;;4.20;;
14346;SDS011;7257;52.158;9.968;2022-10-15T00:47:13;4.60;;;4.20;;
14346;SDS011;7257;52.158;9.968;2022-10-15T00:47:40;3.97;;;3.50;;
14346;SDS011;7257;52.158;9.968;2022-10-15T00:48:04;4.18;;;3.72;;
14346;SDS011;7257;52.158;9.968;2022-10-15T00:48:27;5.00;;;4.50;;
14346;SDS011;7257;52.158;9.968;2022-10-15T00:48:52;5.47;;;4.80;;
14346;SDS011;7257;52.158;9.968;2022-10-15T00:49:21;4.97;;;4.30;;
14346;SDS011;7257;52.158;9.968;2022-10-15T00:49:45;4.28;;;3.65;;
14346;SDS011;7257;52.158;9.968;2022-10-15T00:50:16;5.32;;;3.80;;
14346;SDS011;7257;52.158;9.968;2022-10-15T00:50:38;5.80;;;4.32;;
14346;SDS011;7257;52.158;9.968;2022-10-15T00:50:59;5.80;;;4.80;;
14346;SDS011;7257;52.158;9.968;2022-10-15T00:51:24;5.18;;;4.63;;
14346;SDS011;7257;52.158;9.968;2022-10-15T00:51:51;5.07;;;4.40;;
14346;SDS011;7257;52.158;9.968;2022-10-15T00:52:22;4.97;;;4.32;;
14346;SDS011;7257;52.158;9.968;2022-10-15T00:52:52;6.03;;;4.88;;
14346;SDS011;7257;52.158;9.968;2022-10-15T00:53:20;8.52;;;5.22;;
14346;SDS011;7257;52.158;9.968;2022-10-15T00:53:42;9.30;;;5.30;;
14346;SDS011;7257;52.158;9.968;2022-10-15T00:54:04;8.25;;;5.22;;
14346;SDS011;7257;52.158;9.968;2022-10-15T00:54:30;6.13;;;5.00;;
14346;SDS011;7257;52.158;9.968;2022-10-15T00:54:55;5.40;;;4.90;;
14346;SDS011;7257;52.158;9.968;2022-10-15T00:55:21;6.13;;;5.53;;
14346;SDS011;7257;52.158;9.968;2022-10-15T00:55:46;5.00;;;4.50;;
14346;SDS011;7257;52.158;9.968;2022-10-15T00:56:07;4.80;;;3.78;;
14346;SDS011;7257;52.158;9.968;2022-10-15T00:56:29;5.50;;;4.20;;
14346;SDS011;7257;52.158;9.968;2022-10-15T00:56:52;5.32;;;4.40;;
14346;SDS011;7257;52.158;9.968;2022-10-15T00:57:15;4.90;;;4.07;;
14346;SDS011;7257;52.158;9.968;2022-10-15T00:57:39;5.10;;;4.45;;
14346;SDS011;7257;52.158;9.968;2022-10-15T00:58:08;5.70;;;5.20;;
14346;SDS011;7257;52.158;9.968;2022-10-15T00:58:32;5.95;;;5.30;;
14346;SDS011;7257;52.158;9.968;2022-10-15T00:58:55;5.95;;;4.60;;
14346;SDS011;7257;52.158;9.968;2022-10-15T00:59:18;5.47;;;3.97;;
14346;SDS011;7257;52.158;9.968;2022-10-15T00:59:48;4.78;;;4.20;;
14346;SDS011;7257;52.158;9.968;2022-10-15T01:00:16;4.50;;;4.00;;
14346;SDS011;7257;52.158;9.968;2022-10-15T01:00:38;4.82;;;4.40;;
14346;SDS011;7257;52.158;9.968;2022-10-15T01:00:59;5.50;;;5.00;;
14346;SDS011;7257;52.158;9.968;2022-10-15T01:01:20;5.85;;;5.35;;
14346;SDS011;7257;52.158;9.968;2022-10-15T01:01:44;5.10;;;4.53;;
14346;SDS011;7257;52.158;9.968;2022-10-15T01:02:07;4.57;;;4.13;;
14346;SDS011;7257;52.158;9.968;2022-10-15T01:02:30;5.57;;;4.50;;
14346;SDS011;7257;52.158;9.968;2022-10-15T01:02:52;5.75;;;4.60;;
14346;SDS011;7257;52.158;9.968;2022-10-15T01:03:15;5.35;;;4.35;;
14346;SDS011;7257;52.158;9.968;2022-10-15T01:03:36;4.40;;;4.00;;
14346;SDS011;7257;52.158;9.968;2022-10-15T01:03:57;4.60;;;3.75;;
14346;SDS011;7257;52.158;9.968;2022-10-15T01:04:20;5.38;;;3.50;;
14346;SDS011;7257;52.158;9.968;2022-10-15T01:04:45;5.40;;;3.70;;
14346;SDS011;7257;52.158;9.968;2022-10-15T01:05:08;4.97;;;3.78;;
14346;SDS011;7257;52.158;9.968;2022-10-15T01:05:29;4.85;;;3.90;;
14346;SDS011;7257;52.158;9.968;2022-10-15T01:05:51;5.10;;;3.95;;
14346;SDS011;7257;52.158;9.968;2022-10-15T01:06:16;4.50;;;3.80;;
14346;SDS011;7257;52.158;9.968;2022-10-15T01:06:39;4.25;;;3.83;;
14346;SDS011;7257;52.158;9.968;2022-10-15T01:07:02;4.47;;;3.90;;
14346;SDS011;7257;52.158;9.968;2022-10-15T01:07:23;4.03;;;3.63;;
14346;SDS011;7257;52.158;9.968;2022-10-15T01:07:44;4.47;;;3.47;;
14346;SDS011;7257;52.158;9.968;2022-10-15T01:08:06;4.28;;;3.30;;
14346;SDS011;7257;52.158;9.968;2022-10-15T01:08:28;4.23;;;3.27;;
14346;SDS011;7257;52.158;9.968;2022-10-15T01:08:54;3.97;;;3.58;;
14346;SDS011;7257;52.158;9.968;2022-10-15T01:09:16;5.07;;;4.57;;
14346;SDS011;7257;52.158;9.968;2022-10-15T01:09:39;5.25;;;4.75;;
14346;SDS011;7257;52.158;9.968;2022-10-15T01:10:04;5.03;;;4.10;;
14346;SDS011;7257;52.158;9.968;2022-10-15T01:10:31;5.35;;;4.30;;
14346;SDS011;7257;52.158;9.968;2022-10-15T01:11:14;4.68;;;4.18;;
14346;SDS011;7257;52.158;9.968;2022-10-15T01:12:18;4.03;;;3.63;;
14346;SDS011;7257;52.158;9.968;2022-10-15T01:12:54;4.82;;;4.38;;
14346;SDS011;7257;52.158;9.968;2022-10-15T01:13:23;4.93;;;4.32;;
14346;SDS011;7257;52.158;9.968;2022-10-15T01:13:53;4.93;;;3.78;;
14346;SDS011;7257;52.158;9.968;2022-10-15T01:14:28;4.60;;;3.50;;
14346;SDS011;7257;52.158;9.968;2022-10-15T01:15:00;4.20;;;3.80;;
14346;SDS011;7257;52.158;9.968;2022-10-15T01:15:28;4.70;;;4.20;;
14346;SDS011;7257;52.158;9.968;2022-10-15T01:15:58;5.07;;;4.10;;
14346;SDS011;7257;52.158;9.968;2022-10-15T01:16:29;4.60;;;3.85;;
14346;SDS011;7257;52.158;9.968;2022-10-15T01:16:58;4.00;;;3.60;;
14346;SDS011;7257;52.158;9.968;2022-10-15T01:17:24;4.10;;;3.30;;
14346;SDS011;7257;52.158;9.968;2022-10-15T01:17:55;4.30;;;3.60;;
14346;SDS011;7257;52.158;9.968;2022-10-15T01:18:19;5.70;;;3.88;;
14346;SDS011;7257;52.158;9.968;2022-10-15T01:18:44;5.88;;;3.97;;
14346;SDS011;7257;52.158;9.968;2022-10-15T01:19:11;5.13;;;4.43;;
14346;SDS011;7257;52.158;9.968;2022-10-15T01:19:57;5.50;;;5.00;;
14346;SDS011;7257;52.158;9.968;2022-10-15T01:20:50;5.35;;;4.85;;
14346;SDS011;7257;52.158;9.968;2022-10-15T01:21:19;6.28;;;5.13;;
14346;SDS011;7257;52.158;9.968;2022-10-15T01:21:48;7.38;;;5.20;;
14346;SDS011;7257;52.158;9.968;2022-10-15T01:22:14;5.50;;;4.00;;
14346;SDS011;7257;52.158;9.968;2022-10-15T01:22:52;3.78;;;3.20;;
14346;SDS011;7257;52.158;9.968;2022-10-15T01:24:35;3.58;;;3.25;;
14346;SDS011;7257;52.158;9.968;2022-10-15T01:25:23;4.88;;;3.90;;
14346;SDS011;7257;52.158;9.968;2022-10-15T01:25:54;4.25;;;3.63;;
14346;SDS011;7257;52.158;9.968;2022-10-15T01:26:42;4.10;;;3.70;;
14346;SDS011;7257;52.158;9.968;2022-10-15T01:27:24;4.40;;;3.90;;
14346;SDS011;7257;52.158;9.968;2022-10-15T01:27:51;4.30;;;3.85;;
14346;SDS011;7257;52.158;9.968;2022-10-15T01:28:22;4.47;;;3.50;;
14346;SDS011;7257;52.158;9.968;2022-10-15T01:28:55;3.75;;;3.35;;
14346;SDS011;7257;52.158;9.968;2022-10-15T01:29:37;4.07;;;3.67;;
14346;SDS011;7257;52.158;9.968;2022-10-15T01:30:19;3.90;;;3.55;;
14346;SDS011;7257;52.158;9.968;2022-10-15T01:30:43;5.25;;;4.75;;
14346;SDS011;7257;52.158;9.968;2022-10-15T01:31:08;5.65;;;5.00;;
14346;SDS011;7257;52.158;9.968;2022-10-15T01:31:36;5.20;;;3.95;;
14346;SDS011;7257;52.158;9.968;2022-10-15T01:32:06;5.20;;;4.55;;
14346;SDS011;7257;52.158;9.968;2022-10-15T01:32:37;5.32;;;4.82;;
14346;SDS011;7257;52.158;9.968;2022-10-15T01:33:14;4.75;;;3.97;;
14346;SDS011;7257;52.158;9.968;2022-10-15T01:33:46;5.07;;;4.57;;
14346;SDS011;7257;52.158;9.968;2022-10-15T01:34:21;5.80;;;5.20;;
14346;SDS011;7257;52.158;9.968;2022-10-15T01:34:49;5.32;;;4.82;;
14346;SDS011;7257;52.158;9.968;2022-10-15T01:35:19;4.35;;;3.95;;
14346;SDS011;7257;52.158;9.968;2022-10-15T01:35:49;5.20;;;3.58;;
14346;SDS011;7257;52.158;9.968;2022-10-15T01:36:14;5.70;;;3.90;;
14346;SDS011;7257;52.158;9.968;2022-10-15T01:36:41;6.85;;;4.72;;
14346;SDS011;7257;52.158;9.968;2022-10-15T01:37:10;5.60;;;4.80;;
14346;SDS011;7257;52.158;9.968;2022-10-15T01:37:35;4.53;;;4.10;;
14346;SDS011;7257;52.158;9.968;2022-10-15T01:38:01;4.93;;;4.43;;
14346;SDS011;7257;52.158;9.968;2022-10-15T01:38:34;5.38;;;4.70;;
14346;SDS011;7257;52.158;9.968;2022-10-15T01:39:08;5.63;;;4.85;;
14346;SDS011;7257;52.158;9.968;2022-10-15T01:39:33;5.40;;;4.50;;
14346;SDS011;7257;52.158;9.968;2022-10-15T01:40:01;4.10;;;3.70;;
14346;SDS011;7257;52.158;9.968;2022-10-15T01:40:29;4.40;;;4.00;;
14346;SDS011;7257;52.158;9.968;2022-10-15T01:40:57;4.40;;;4.00;;
14346;SDS011;7257;52.158;9.968;2022-10-15T01:41:24;5.32;;;4.82;;
14346;SDS011;7257;52.158;9.968;2022-10-15T01:41:59;5.72;;;5.20;;
14346;SDS011;7257;52.158;9.968;2022-10-15T01:42:25;5.00;;;4.50;;
14346;SDS011;7257;52.158;9.968;2022-10-15T01:42:53;4.60;;;4.00;;
14346;SDS011;7257;52.158;9.968;2022-10-15T01:43:19;4.30;;;3.90;;
14346;SDS011;7257;52.158;9.968;2022-10-15T01:43:46;4.18;;;3.78;;
14346;SDS011;7257;52.158;9.968;2022-10-15T01:44:14;4.40;;;3.90;;
14346;SDS011;7257;52.158;9.968;2022-10-15T01:44:41;4.60;;;4.10;;
14346;SDS011;7257;52.158;9.968;2022-10-15T01:45:07;4.20;;;3.78;;
14346;SDS011;7257;52.158;9.968;2022-10-15T01:45:35;4.07;;;3.65;;
14346;SDS011;7257;52.158;9.968;2022-10-15T01:45:59;4.88;;;4.40;;
14346;SDS011;7257;52.158;9.968;2022-10-15T01:46:24;4.72;;;4.03;;
14346;SDS011;7257;52.158;9.968;2022-10-15T01:46:49;5.90;;;4.55;;
14346;SDS011;7257;52.158;9.968;2022-10-15T01:47:18;6.97;;;5.00;;
14346;SDS011;7257;52.158;9.968;2022-10-15T01:47:43;6.40;;;4.75;;
14346;SDS011;7257;52.158;9.968;2022-10-15T01:48:08;4.65;;;4.15;;
14346;SDS011;7257;52.158;9.968;2022-10-15T01:48:31;4.45;;;4.05;;
14346;SDS011;7257;52.158;9.968;2022-10-15T01:48:56;4.90;;;4.40;;
14346;SDS011;7257;52.158;9.968;2022-10-15T01:49:19;4.50;;;4.10;;
14346;SDS011;7257;52.158;9.968;2022-10-15T01:49:46;4.90;;;4.40;;
14346;SDS011;7257;52.158;9.968;2022-10-15T01:50:12;4.50;;;4.03;;
14346;SDS011;7257;52.158;9.968;2022-10-15T01:50:37;7.63;;;4.78;;
14346;SDS011;7257;52.158;9.968;2022-10-15T01:51:01;7.20;;;4.40;;
14346;SDS011;7257;52.158;9.968;2022-10-15T01:51:25;6.28;;;4.10;;
14346;SDS011;7257;52.158;9.968;2022-10-15T01:51:48;4.72;;;3.85;;
14346;SDS011;7257;52.158;9.968;2022-10-15T01:52:13;4.63;;;3.70;;
14346;SDS011;7257;52.158;9.968;2022-10-15T01:52:37;4.43;;;4.00;;
14346;SDS011;7257;52.158;9.968;2022-10-15T01:52:59;4.30;;;3.88;;
14346;SDS011;7257;52.158;9.968;2022-10-15T01:53:23;4.30;;;3.60;;
14346;SDS011;7257;52.158;9.968;2022-10-15T01:53:45;4.78;;;4.13;;
14346;SDS011;7257;52.158;9.968;2022-10-15T01:54:10;4.70;;;4.20;;
14346;SDS011;7257;52.158;9.968;2022-10-15T01:54:36;4.57;;;4.18;;
14346;SDS011;7257;52.158;9.968;2022-10-15T01:54:57;4.63;;;4.22;;
14346;SDS011;7257;52.158;9.968;2022-10-15T01:55:19;5.10;;;4.70;;
14346;SDS011;7257;52.158;9.968;2022-10-15T01:55:46;4.97;;;4.57;;
14346;SDS011;7257;52.158;9.968;2022-10-15T01:56:10;5.30;;;4.80;;
14346;SDS011;7257;52.158;9.968;2022-10-15T01:56:34;4.60;;;4.20;;
14346;SDS011;7257;52.158;9.968;2022-10-15T01:56:57;4.13;;;3.72;;
14346;SDS011;7257;52.158;9.968;2022-10-15T01:57:19;4.35;;;3.95;;
14346;SDS011;7257;52.158;9.968;2022-10-15T01:57:45;4.78;;;4.30;;
14346;SDS011;7257;52.158;9.968;2022-10-15T01:58:08;4.70;;;4.30;;
14346;SDS011;7257;52.158;9.968;2022-10-15T01:58:30;4.70;;;4.15;;
14346;SDS011;7257;52.158;9.968;2022-10-15T01:58:53;5.00;;;4.43;;
14346;SDS011;7257;52.158;9.968;2022-10-15T01:59:17;5.05;;;4.38;;
14346;SDS011;7257;52.158;9.968;2022-10-15T01:59:41;4.70;;;4.15;;
14346;SDS011;7257;52.158;9.968;2022-10-15T02:00:11;4.93;;;4.50;;
14346;SDS011;7257;52.158;9.968;2022-10-15T02:00:34;5.35;;;4.80;;
14346;SDS011;7257;52.158;9.968;2022-10-15T02:00:56;5.40;;;4.63;;
14346;SDS011;7257;52.158;9.968;2022-10-15T02:01:18;6.18;;;4.97;;
14346;SDS011;7257;52.158;9.968;2022-10-15T02:01:40;5.40;;;4.90;;
14346;SDS011;7257;52.158;9.968;2022-10-15T02:02:02;4.80;;;4.40;;
14346;SDS011;7257;52.158;9.968;2022-10-15T02:02:24;4.95;;;4.55;;
14346;SDS011;7257;52.158;9.968;2022-10-15T02:02:45;5.13;;;4.63;;
14346;SDS011;7257;52.158;9.968;2022-10-15T02:03:06;5.68;;;5.05;;
14346;SDS011;7257;52.158;9.968;2022-10-15T02:03:27;5.93;;;5.35;;
14346;SDS011;7257;52.158;9.968;2022-10-15T02:03:48;6.37;;;5.77;;
14346;SDS011;7257;52.158;9.968;2022-10-15T02:04:18;5.60;;;5.05;;
14346;SDS011;7257;52.158;9.968;2022-10-15T02:04:40;5.18;;;4.30;;
14346;SDS011;7257;52.158;9.968;2022-10-15T02:05:01;5.07;;;4.10;;
14346;SDS011;7257;52.158;9.968;2022-10-15T02:05:26;5.00;;;4.03;;
14346;SDS011;7257;52.158;9.968;2022-10-15T02:05:54;4.97;;;4.47;;
14346;SDS011;7257;52.158;9.968;2022-10-15T02:06:22;5.18;;;4.78;;
14346;SDS011;7257;52.158;9.968;2022-10-15T02:06:47;5.20;;;4.70;;
14346;SDS011;7257;52.158;9.968;2022-10-15T02:07:14;4.32;;;3.92;;
14346;SDS011;7257;52.158;9.968;2022-10-15T02:07:48;4.75;;;4.20;;
14346;SDS011;7257;52.158;9.968;2022-10-15T02:08:19;5.65;;;4.85;;
14346;SDS011;7257;52.158;9.968;2022-10-15T02:09:02;5.00;;;4.50;;
14346;SDS011;7257;52.158;9.968;2022-10-15T02:09:36;5.00;;;3.88;;
14346;SDS011;7257;52.158;9.968;2022-10-15T02:10:04;5.10;;;4.40;;
14346;SDS011;7257;52.158;9.968;2022-10-15T02:10:33;4.50;;;3.92;;
14346;SDS011;7257;52.158;9.968;2022-10-15T02:11:04;4.90;;;4.20;;
14346;SDS011;7257;52.158;9.968;2022-10-15T02:11:27;4.90;;;4.25;;
14346;SDS011;7257;52.158;9.968;2022-10-15T02:11:58;5.00;;;4.50;;
14346;SDS011;7257;52.158;9.968;2022-10-15T02:12:30;5.10;;;4.60;;
14346;SDS011;7257;52.158;9.968;2022-10-15T02:13:01;5.72;;;4.65;;
14346;SDS011;7257;52.158;9.968;2022-10-15T02:13:30;5.80;;;4.60;;
14346;SDS011;7257;52.158;9.968;2022-10-15T02:13:59;4.82;;;4.07;;
14346;SDS011;7257;52.158;9.968;2022-10-15T02:14:24;4.40;;;4.00;;
14346;SDS011;7257;52.158;9.968;2022-10-15T02:14:51;5.30;;;4.63;;
14346;SDS011;7257;52.158;9.968;2022-10-15T02:15:19;5.70;;;4.70;;
14346;SDS011;7257;52.158;9.968;2022-10-15T02:15:48;5.60;;;4.20;;
14346;SDS011;7257;52.158;9.968;2022-10-15T02:16:15;6.20;;;4.57;;
14346;SDS011;7257;52.158;9.968;2022-10-15T02:16:45;5.65;;;4.78;;
14346;SDS011;7257;52.158;9.968;2022-10-15T02:17:13;5.60;;;4.57;;
14346;SDS011;7257;52.158;9.968;2022-10-15T02:17:40;5.32;;;4.05;;
14346;SDS011;7257;52.158;9.968;2022-10-15T02:18:05;5.35;;;4.57;;
14346;SDS011;7257;52.158;9.968;2022-10-15T02:18:32;5.32;;;4.75;;
14346;SDS011;7257;52.158;9.968;2022-10-15T02:18:59;5.32;;;4.50;;
14346;SDS011;7257;52.158;9.968;2022-10-15T02:19:25;5.28;;;4.78;;
14346;SDS011;7257;52.158;9.968;2022-10-15T02:19:53;5.05;;;4.55;;
14346;SDS011;7257;52.158;9.968;2022-10-15T02:20:20;6.10;;;5.50;;
14346;SDS011;7257;52.158;9.968;2022-10-15T02:20:45;5.97;;;5.38;;
14346;SDS011;7257;52.158;9.968;2022-10-15T02:21:11;5.80;;;5.20;;
14346;SDS011;7257;52.158;9.968;2022-10-15T02:21:38;5.88;;;5.07;;
14346;SDS011;7257;52.158;9.968;2022-10-15T02:22:05;5.57;;;4.70;;
14346;SDS011;7257;52.158;9.968;2022-10-15T02:22:36;5.05;;;4.40;;
14346;SDS011;7257;52.158;9.968;2022-10-15T02:23:01;5.68;;;4.80;;
14346;SDS011;7257;52.158;9.968;2022-10-15T02:23:30;5.97;;;5.38;;
14346;SDS011;7257;52.158;9.968;2022-10-15T02:23:56;5.50;;;5.00;;
14346;SDS011;7257;52.158;9.968;2022-10-15T02:24:24;5.50;;;5.00;;
14346;SDS011;7257;52.158;9.968;2022-10-15T02:24:49;5.25;;;4.75;;
14346;SDS011;7257;52.158;9.968;2022-10-15T02:25:13;5.45;;;4.93;;
14346;SDS011;7257;52.158;9.968;2022-10-15T02:25:37;5.30;;;4.80;;
14346;SDS011;7257;52.158;9.968;2022-10-15T02:26:00;5.97;;;5.00;;
14346;SDS011;7257;52.158;9.968;2022-10-15T02:26:26;6.18;;;5.47;;
14346;SDS011;7257;52.158;9.968;2022-10-15T02:26:50;6.78;;;5.28;;
14346;SDS011;7257;52.158;9.968;2022-10-15T02:27:13;5.68;;;4.70;;
14346;SDS011;7257;52.158;9.968;2022-10-15T02:27:35;5.05;;;4.55;;
14346;SDS011;7257;52.158;9.968;2022-10-15T02:27:59;5.68;;;4.82;;
14346;SDS011;7257;52.158;9.968;2022-10-15T02:28:23;5.38;;;4.45;;
14346;SDS011;7257;52.158;9.968;2022-10-15T02:28:48;4.85;;;4.00;;
14346;SDS011;7257;52.158;9.968;2022-10-15T02:29:12;4.50;;;4.10;;
14346;SDS011;7257;52.158;9.968;2022-10-15T02:29:38;4.50;;;4.10;;
14346;SDS011;7257;52.158;9.968;2022-10-15T02:30:03;5.07;;;4.57;;
14346;SDS011;7257;52.158;9.968;2022-10-15T02:30:28;5.45;;;4.93;;
14346;SDS011;7257;52.158;9.968;2022-10-15T02:30:51;5.30;;;4.80;;
14346;SDS011;7257;52.158;9.968;2022-10-15T02:31:15;4.50;;;4.10;;
14346;SDS011;7257;52.158;9.968;2022-10-15T02:31:41;5.10;;;4.55;;
14346;SDS011;7257;52.158;9.968;2022-10-15T02:32:03;4.85;;;4.30;;
14346;SDS011;7257;52.158;9.968;2022-10-15T02:32:26;4.47;;;4.00;;
14346;SDS011;7257;52.158;9.968;2022-10-15T02:32:50;5.35;;;4.43;;
14346;SDS011;7257;52.158;9.968;2022-10-15T02:33:14;5.65;;;4.40;;
14346;SDS011;7257;52.158;9.968;2022-10-15T02:33:36;4.93;;;4.43;;
14346;SDS011;7257;52.158;9.968;2022-10-15T02:34:00;5.28;;;4.78;;
14346;SDS011;7257;52.158;9.968;2022-10-15T02:34:27;5.13;;;4.63;;
14346;SDS011;7257;52.158;9.968;2022-10-15T02:34:50;5.10;;;4.60;;
14346;SDS011;7257;52.158;9.968;2022-10-15T02:35:12;5.13;;;4.63;;
14346;SDS011;7257;52.158;9.968;2022-10-15T02:35:34;5.05;;;4.57;;
14346;SDS011;7257;52.158;9.968;2022-10-15T02:35:56;4.88;;;4.38;;
14346;SDS011;7257;52.158;9.968;2022-10-15T02:36:18;4.93;;;4.43;;
14346;SDS011;7257;52.158;9.968;2022-10-15T02:36:39;5.95;;;5.13;;